LIPEEBCI

Guest
Details From LIPE - Bologna
To EBCI - Brussels South - Charleroi
Flight Number -
Tags Generated
Created
Modified
Stats Distance 450 nm / 834 km
Max Altitude 0 ft / 0 m
Waypoints 6
Social Downloads 1
Likes 0
Share VATSIM

Download

Looking for another format? Having issues loading an existing format? Contact us
Advertisement - Login to hide

Notes

Generated

Route

LIPE OSKOR BEGAR LOU BFS84 EBCI

ID Type Via Altitude Latitude Longitude Leg Dist Tot Dist Heading (true) Name
O LIPE APT - 0 ft / 0 m 44.54112˚ 11.27290˚ - 0 nm - -
OSKOR FIX - 0 ft / 0 m 45.64917˚ 10.11667˚ 82 nm 82 nm 324° / 323° -
BEGAR FIX - 0 ft / 0 m 47.90833˚ 7.58333˚ 171 nm 253 nm 323° / 322° -
LOU NDB - 0 ft / 0 m 48.99806˚ 6.27139˚ 83 nm 337 nm 322° / 321° Metz Nancy Lorrraine NDB
BFS84 FIX - 0 ft / 0 m 50.24831˚ 4.70389˚ 96 nm 434 nm 322° / 320° -
O EBCI APT - 0 ft / 0 m 50.45539˚ 4.43664˚ 16 nm 450 nm 321° / 320° -

Altitude Profile

Advertisement - Login to hide

Weather


0- 5 10 15 20 25 30 35+ Temperature / ° C

Clouds and Precipitation
Forecast for 2017-12-14 18:00 UTC. Updated 2 hours ago

Ground ~20,000 ft ~40,000 ft Winds

LIPE

Details ICAO LIPE (BLQ)
Name BOLOGNA
Region Italy
Timezone Europe/Rome (UTC+1.0)
Stats Elevation 123 ft / 37 m (AMSL)
Location 44.535446° 11.288662°
Runways 1
Magnetic Variation 2.918° E

METAR

LIPE 141850Z VRB01KT 8000 NSC 03/02 Q1004

Decode

TAF

TAF LIPE 141700Z 1418/1518 VRB04KT 7000 NSC BECMG 1421/1423 25014KT BECMG 1514/1516 VRB05KT TEMPO 1516/1518 4000 SHRA

Decode

Departure Runways

ID Width Length Bearing (true) Bearing (mag) Surface Threshold Offset Overrun Length
12 148 ft / 45 m 9,185 ft / 2,800 m 116.78° 113.86° Asphalt 1,007 ft / 307 m 0 ft / 0 m
30 148 ft / 45 m 9,185 ft / 2,800 m 296.81° 293.89° Asphalt 1,188 ft / 362 m 200 ft / 61 m

EBCI

Details ICAO EBCI (CRL)
Name Brussels South - Charleroi
Region Belgium
Timezone Europe/Brussels (UTC+1.0)
Stats Elevation 614 ft / 187 m (AMSL)
Location 50.459947° 4.453125°
Runways 1
Magnetic Variation 1.134° E

METAR

EBCI 141850Z 29007KT 260V320 4000 SN SCT003 BKN005 01/M00 Q0991 RERA TEMPO 2000 SNRA SN BKN006

Decode

TAF

TAF EBCI 141703Z 1418/1524 22011KT 9999 SCT014 SCT035 PROB40 TEMPO 1418/1517 2500 SHSNRAGS BKN005 SCT010CB PROB30 TEMPO 1501/1509 1200 SHSN BKN003

Decode

Destination Runways

ID Width Length Bearing (true) Bearing (mag) Surface Threshold Offset Overrun Length
07 148 ft / 45 m 8,374 ft / 2,552 m 65.53° 64.40° Asphalt 1,476 ft / 450 m 0 ft / 0 m
25 148 ft / 45 m 8,374 ft / 2,552 m 245.55° 244.42° Asphalt 0 ft / 0 m 0 ft / 0 m

Approach Navaids

Runway Type Ident Frequency Range Bearing (true) Bearing (mag) Slope Elevation
25 Localiser IGC 110.90 MHz 18 nm / 33 km 245.54° 244.41° - 614 ft / 187 m (AMSL)
25 Glidescope IGC 110.90 MHz 10 nm / 19 km 245.54° 244.41° 3.00° 614 ft / 187 m (AMSL)

Popular Alternatives